createdAt,value
2019-05-10T00:02:18.800Z,13.00
2019-05-10T00:05:46.203Z,12.90
2019-05-10T00:08:53.529Z,13.00
2019-05-10T00:12:20.635Z,12.80
2019-05-10T00:18:44.373Z,12.70
2019-05-10T00:21:52.487Z,12.70
2019-05-10T00:25:04.311Z,12.80
2019-05-10T00:28:10.296Z,12.70
2019-05-10T00:31:18.394Z,12.80
2019-05-10T00:34:18.814Z,12.80
2019-05-10T00:37:19.486Z,12.70
2019-05-10T00:40:20.094Z,12.60
2019-05-10T00:43:20.770Z,12.70
2019-05-10T00:46:21.524Z,12.70
2019-05-10T00:49:22.269Z,12.70
2019-05-10T00:52:23.117Z,12.70
2019-05-10T00:55:23.498Z,12.80
2019-05-10T00:58:24.260Z,12.60
2019-05-10T01:01:24.927Z,12.70
2019-05-10T01:04:25.759Z,12.70
2019-05-10T01:07:26.431Z,12.80
2019-05-10T01:10:27.307Z,12.70
2019-05-10T01:13:28.016Z,12.70
2019-05-10T01:16:29.235Z,12.70
2019-05-10T01:19:29.985Z,12.70
2019-05-10T01:22:30.698Z,12.70
2019-05-10T01:25:35.259Z,12.70
2019-05-10T01:28:34.158Z,12.70
2019-05-10T01:31:35.015Z,12.70
2019-05-10T01:34:35.465Z,12.80
2019-05-10T01:37:36.493Z,12.80
2019-05-10T01:40:37.226Z,12.70
2019-05-10T01:43:38.025Z,12.80
2019-05-10T01:46:38.838Z,12.70
2019-05-10T01:49:39.849Z,12.80
2019-05-10T01:52:40.463Z,12.80
2019-05-10T01:55:51.760Z,12.70
2019-05-10T01:58:44.375Z,12.70
2019-05-10T02:01:45.205Z,12.80
2019-05-10T02:04:46.086Z,12.80
2019-05-10T02:07:46.741Z,12.70
2019-05-10T02:10:47.602Z,12.80
2019-05-10T02:13:48.513Z,12.80
2019-05-10T02:16:49.341Z,12.80
2019-05-10T02:19:50.165Z,12.60
2019-05-10T02:22:50.938Z,12.70
2019-05-10T02:26:07.248Z,12.80
2019-05-10T02:28:54.747Z,12.60
2019-05-10T02:31:55.537Z,12.60
2019-05-10T02:34:56.267Z,12.60
2019-05-10T02:37:56.987Z,12.50
2019-05-10T02:40:57.786Z,12.60
2019-05-10T02:43:58.535Z,12.70
2019-05-10T02:46:59.282Z,12.50
2019-05-10T02:49:59.869Z,12.50
2019-05-10T02:53:00.693Z,12.50
2019-05-10T02:56:01.471Z,12.50
2019-05-10T02:59:02.295Z,12.50
2019-05-10T03:02:03.152Z,12.50
2019-05-10T03:05:03.883Z,12.50
2019-05-10T03:08:04.629Z,12.60
2019-05-10T03:11:05.416Z,12.50
2019-05-10T03:14:06.202Z,12.60
2019-05-10T03:17:07.345Z,12.40
2019-05-10T03:20:08.237Z,12.40
2019-05-10T03:23:08.991Z,12.30
2019-05-10T03:26:09.777Z,12.40
2019-05-10T03:29:10.582Z,12.40
2019-05-10T03:32:11.334Z,12.40
2019-05-10T03:35:11.961Z,12.30
2019-05-10T03:38:12.954Z,12.30
2019-05-10T03:41:13.790Z,12.30
2019-05-10T03:44:14.383Z,12.20
2019-05-10T03:47:15.226Z,12.20
2019-05-10T03:50:15.827Z,12.30
2019-05-10T03:53:16.646Z,12.20
2019-05-10T03:56:17.439Z,12.20
2019-05-10T03:59:18.381Z,12.20
2019-05-10T04:02:19.165Z,12.20
2019-05-10T04:05:19.957Z,12.00
2019-05-10T04:08:20.698Z,12.10
2019-05-10T04:11:21.557Z,12.10
2019-05-10T04:14:22.651Z,12.00
2019-05-10T04:17:23.393Z,12.10
2019-05-10T04:20:23.911Z,12.00
2019-05-10T04:23:24.914Z,12.00
2019-05-10T04:26:25.832Z,12.10
2019-05-10T04:29:26.677Z,12.00
2019-05-10T04:32:27.278Z,11.90
2019-05-10T04:35:28.077Z,12.00
2019-05-10T04:38:28.760Z,12.00
2019-05-10T04:41:29.670Z,12.10
2019-05-10T04:44:30.578Z,11.90
2019-05-10T04:47:31.156Z,12.00
2019-05-10T04:50:31.833Z,12.00
2019-05-10T04:53:32.691Z,12.00
2019-05-10T04:56:33.470Z,12.10
2019-05-10T04:59:34.250Z,12.00
2019-05-10T05:02:35.086Z,12.00
2019-05-10T05:05:35.866Z,12.10
2019-05-10T05:08:36.560Z,12.20
2019-05-10T05:11:37.002Z,12.20
2019-05-10T05:14:38.002Z,12.20
2019-05-10T05:17:38.643Z,12.30
2019-05-10T05:20:39.389Z,12.20
2019-05-10T05:23:40.330Z,12.20
2019-05-10T05:26:41.099Z,12.10
2019-05-10T05:29:41.809Z,12.20
2019-05-10T05:32:44.659Z,12.20
2019-05-10T05:35:45.854Z,12.20
2019-05-10T05:38:34.694Z,12.20
2019-05-10T05:41:49.083Z,12.20
2019-05-10T05:44:54.129Z,12.30
2019-05-10T05:48:02.161Z,12.30
2019-05-10T05:51:10.174Z,12.50
2019-05-10T05:54:20.987Z,12.40
2019-05-10T05:57:29.599Z,12.20
2019-05-10T06:00:44.853Z,12.30
2019-05-10T06:03:47.494Z,12.20
2019-05-10T06:06:59.163Z,12.00
2019-05-10T06:10:10.440Z,11.90
2019-05-10T06:13:15.301Z,11.90
2019-05-10T06:16:23.317Z,12.10
2019-05-10T06:19:31.344Z,12.10
2019-05-10T06:22:45.570Z,12.10
2019-05-10T06:25:49.089Z,12.00
2019-05-10T06:29:01.390Z,12.00
2019-05-10T06:32:06.852Z,12.00
2019-05-10T06:35:07.997Z,12.00
2019-05-10T06:38:08.714Z,11.90
2019-05-10T06:41:10.121Z,12.00
2019-05-10T06:44:12.443Z,11.90
2019-05-10T06:47:13.277Z,12.10
2019-05-10T06:50:13.684Z,12.00
2019-05-10T06:53:14.615Z,12.00
2019-05-10T06:56:15.329Z,12.00
2019-05-10T06:59:19.342Z,12.00
2019-05-10T07:02:19.945Z,11.90
2019-05-10T07:05:21.759Z,12.00
2019-05-10T07:08:22.529Z,11.90
2019-05-10T07:11:23.140Z,12.00
2019-05-10T07:14:27.133Z,11.90
2019-05-10T07:17:26.606Z,11.90
2019-05-10T07:20:29.517Z,11.80
2019-05-10T07:23:30.345Z,11.80
2019-05-10T07:26:30.864Z,11.90
2019-05-10T07:29:42.067Z,11.90
2019-05-10T07:32:34.010Z,11.90
2019-05-10T07:35:36.778Z,12.00
2019-05-10T07:38:37.283Z,12.00
2019-05-10T07:41:37.793Z,11.90
2019-05-10T07:44:41.532Z,12.00
2019-05-10T07:47:40.265Z,11.90
2019-05-10T07:50:42.571Z,11.90
2019-05-10T07:53:43.978Z,12.00
2019-05-10T07:56:45.580Z,12.00
2019-05-10T07:59:50.794Z,12.00
2019-05-10T08:02:57.718Z,11.90
2019-05-10T08:05:57.027Z,11.70
2019-05-10T08:09:01.900Z,11.70
2019-05-10T08:12:03.218Z,11.60
2019-05-10T08:15:01.741Z,11.70
2019-05-10T08:18:02.445Z,11.60
2019-05-10T08:21:17.974Z,11.70
2019-05-10T08:24:13.486Z,11.70
2019-05-10T08:27:13.961Z,11.90
2019-05-10T08:30:22.653Z,12.10
2019-05-10T08:33:14.806Z,12.00
2019-05-10T08:36:14.057Z,12.30
2019-05-10T08:39:22.455Z,12.20
2019-05-10T08:42:43.833Z,12.10
2019-05-10T08:45:44.996Z,11.90
2019-05-10T08:48:53.739Z,12.00
2019-05-10T08:52:02.934Z,11.90
2019-05-10T08:55:12.337Z,11.90
2019-05-10T08:58:31.092Z,11.90
2019-05-10T09:01:33.046Z,11.80
2019-05-10T09:04:43.652Z,11.90
2019-05-10T09:07:51.929Z,12.00
2019-05-10T09:10:59.437Z,11.70
2019-05-10T09:14:12.335Z,11.80
2019-05-10T09:17:23.464Z,12.20
2019-05-10T09:20:26.929Z,12.20
2019-05-10T09:23:34.942Z,12.40
2019-05-10T09:26:46.804Z,12.50
2019-05-10T09:29:53.110Z,12.60
2019-05-10T09:33:08.640Z,12.70
2019-05-10T09:36:04.530Z,12.70
2019-05-10T09:39:09.076Z,12.50
2019-05-10T09:42:10.813Z,12.50
2019-05-10T09:45:12.903Z,12.30
2019-05-10T09:48:02.535Z,12.40
2019-05-10T09:51:13.770Z,12.40
2019-05-10T09:54:26.617Z,12.40
2019-05-10T09:57:32.261Z,12.30
2019-05-10T10:00:40.616Z,12.30
2019-05-10T10:03:48.650Z,12.10
2019-05-10T10:06:57.962Z,12.20
2019-05-10T10:10:31.910Z,12.10
2019-05-10T10:13:43.144Z,12.50
2019-05-10T10:16:57.914Z,12.30
2019-05-10T10:19:57.935Z,12.40
2019-05-10T10:23:07.211Z,12.30
2019-05-10T10:26:18.559Z,12.40
2019-05-10T10:29:28.807Z,12.40
2019-05-10T10:32:37.165Z,12.20
2019-05-10T10:35:38.097Z,12.30
2019-05-10T10:38:45.371Z,12.20
2019-05-10T10:41:41.876Z,12.10
2019-05-10T10:44:42.903Z,12.20
2019-05-10T10:47:42.045Z,12.30
2019-05-10T10:50:55.429Z,12.40
2019-05-10T10:53:59.794Z,12.50
2019-05-10T10:57:08.153Z,12.60
2019-05-10T11:03:52.365Z,12.70
2019-05-10T11:07:10.026Z,12.80
2019-05-10T11:10:16.137Z,13.00
2019-05-10T11:13:40.160Z,13.10
2019-05-10T11:16:29.793Z,13.30
2019-05-10T11:19:37.828Z,13.20
2019-05-10T11:22:49.820Z,13.60
2019-05-10T11:25:56.598Z,13.70
2019-05-10T11:29:05.299Z,13.90
2019-05-10T11:32:16.796Z,13.80
2019-05-10T11:35:20.820Z,13.70
2019-05-10T11:38:18.584Z,13.50
2019-05-10T11:41:23.788Z,13.60
2019-05-10T11:44:25.722Z,13.80
2019-05-10T11:47:27.193Z,14.00
2019-05-10T11:50:32.523Z,13.90
2019-05-10T11:53:31.542Z,13.90
2019-05-10T11:56:32.527Z,13.70
2019-05-10T11:59:38.422Z,13.80
2019-05-10T12:02:41.999Z,13.80
2019-05-10T12:05:42.265Z,13.80
2019-05-10T12:08:42.142Z,13.70
2019-05-10T12:11:33.939Z,13.60
2019-05-10T12:14:43.674Z,13.80
2019-05-10T12:17:58.671Z,14.00
2019-05-10T12:21:09.040Z,14.10
2019-05-10T12:24:26.309Z,14.00
2019-05-10T12:27:28.518Z,14.10
2019-05-10T12:30:34.259Z,14.50
2019-05-10T12:33:32.325Z,14.80
2019-05-10T12:36:33.242Z,14.50
2019-05-10T12:39:34.295Z,14.90
2019-05-10T12:42:35.042Z,14.80
2019-05-10T12:45:36.017Z,14.80
2019-05-10T12:48:36.686Z,14.50
2019-05-10T12:51:37.444Z,14.70
2019-05-10T12:54:38.145Z,15.00
2019-05-10T12:57:42.865Z,15.20
2019-05-10T13:00:41.809Z,15.20
2019-05-10T13:03:44.685Z,15.10
2019-05-10T13:06:45.511Z,15.20
2019-05-10T13:09:49.878Z,15.20
2019-05-10T13:12:49.151Z,15.40
2019-05-10T13:15:50.284Z,15.40
2019-05-10T13:18:52.596Z,15.40
2019-05-10T13:21:58.634Z,15.10
2019-05-10T13:24:56.670Z,15.50
2019-05-10T13:27:57.474Z,15.60
2019-05-10T13:30:59.823Z,15.60
2019-05-10T13:34:00.990Z,15.90
2019-05-10T13:37:01.626Z,16.20
2019-05-10T13:40:05.630Z,16.60
2019-05-10T13:43:05.022Z,16.90
2019-05-10T13:46:06.082Z,16.50
2019-05-10T13:49:06.805Z,16.40
2019-05-10T13:52:07.545Z,16.20
2019-05-10T13:55:08.252Z,16.10
2019-05-10T13:58:09.052Z,15.70
2019-05-10T14:01:13.213Z,15.30
2019-05-10T14:04:12.414Z,15.40
2019-05-10T14:07:13.333Z,15.50
2019-05-10T14:10:18.146Z,15.10
2019-05-10T14:13:17.209Z,15.00
2019-05-10T14:16:19.821Z,15.00
2019-05-10T14:19:22.810Z,15.00
2019-05-10T14:22:22.533Z,14.90
2019-05-10T14:25:23.287Z,15.10
2019-05-10T14:28:24.458Z,15.10
2019-05-10T14:31:25.273Z,15.20
2019-05-10T14:34:25.978Z,15.80
2019-05-10T14:37:26.821Z,15.20
2019-05-10T14:40:30.519Z,15.40
2019-05-10T14:43:30.703Z,15.70
2019-05-10T14:46:31.481Z,15.60
2019-05-10T14:49:20.278Z,15.60
2019-05-10T14:52:28.309Z,15.60
2019-05-10T14:55:37.004Z,16.30
2019-05-10T14:58:46.050Z,16.30
2019-05-10T15:01:54.062Z,16.60
2019-05-10T15:05:02.098Z,16.30
2019-05-10T15:08:10.142Z,17.10
2019-05-10T15:11:18.161Z,17.20
2019-05-10T15:14:26.190Z,16.90
2019-05-10T15:17:34.223Z,16.40
2019-05-10T15:20:42.242Z,16.00
2019-05-10T15:23:50.289Z,16.00
2019-05-10T15:26:58.358Z,16.20
2019-05-10T15:30:08.179Z,16.00
2019-05-10T15:33:17.186Z,15.90
2019-05-10T15:36:18.290Z,15.90
2019-05-10T15:39:22.962Z,15.70
2019-05-10T15:42:22.188Z,15.90
2019-05-10T15:45:22.985Z,15.70
2019-05-10T15:48:23.923Z,15.60
2019-05-10T15:51:35.222Z,15.60
2019-05-10T15:54:38.012Z,15.60
2019-05-10T15:57:42.499Z,15.70
2019-05-10T16:00:50.750Z,15.80
2019-05-10T16:03:58.780Z,16.10
2019-05-10T16:07:09.331Z,15.80
2019-05-10T16:10:16.658Z,15.60
2019-05-10T16:13:25.207Z,15.40
2019-05-10T16:16:37.038Z,15.90
2019-05-10T16:19:44.129Z,16.10
2019-05-10T16:22:52.142Z,16.60
2019-05-10T16:26:00.184Z,16.80
2019-05-10T16:29:08.205Z,16.80
2019-05-10T16:32:16.217Z,16.90
2019-05-10T16:35:17.387Z,16.50
2019-05-10T16:38:18.182Z,16.30
2019-05-10T16:41:18.602Z,16.00
2019-05-10T16:44:20.924Z,15.70
2019-05-10T16:47:21.901Z,16.00
2019-05-10T16:50:25.902Z,16.60
2019-05-10T16:53:25.301Z,16.50
2019-05-10T16:56:25.742Z,16.80
2019-05-10T16:59:29.633Z,17.30
2019-05-10T17:02:29.353Z,17.60
2019-05-10T17:05:29.958Z,17.90
2019-05-10T17:08:36.008Z,17.40
2019-05-10T17:11:34.409Z,17.40
2019-05-10T17:14:35.685Z,17.30
2019-05-10T17:17:37.070Z,17.00
2019-05-10T17:20:38.810Z,16.90
2019-05-10T17:23:41.605Z,16.70
2019-05-10T17:26:42.257Z,16.70
2019-05-10T17:29:31.056Z,16.70
2019-05-10T17:32:39.085Z,16.30
2019-05-10T17:35:42.103Z,16.00
2019-05-10T17:38:47.315Z,15.80
2019-05-10T17:41:45.318Z,15.90
2019-05-10T17:44:46.026Z,16.00
2019-05-10T17:47:47.033Z,16.00
2019-05-10T17:50:48.590Z,15.80
2019-05-10T17:53:54.974Z,15.90
2019-05-10T17:56:52.101Z,15.80
2019-05-10T17:59:54.517Z,15.70
2019-05-10T18:02:55.117Z,15.80
2019-05-10T18:05:55.834Z,15.70
2019-05-10T18:08:56.333Z,15.70
2019-05-10T18:11:56.906Z,15.70
2019-05-10T18:14:57.654Z,15.60
2019-05-10T18:18:02.787Z,15.40
2019-05-10T18:21:00.990Z,15.30
2019-05-10T18:24:01.644Z,15.20
2019-05-10T18:27:02.256Z,15.20
2019-05-10T18:30:02.575Z,15.10
2019-05-10T18:33:06.853Z,14.90
2019-05-10T18:36:05.838Z,14.90
2019-05-10T18:39:09.166Z,14.80
2019-05-10T18:42:10.122Z,14.80
2019-05-10T18:45:10.589Z,14.80
2019-05-10T18:48:11.263Z,14.80
2019-05-10T18:51:11.773Z,14.80
2019-05-10T18:54:12.587Z,14.80
2019-05-10T18:57:18.975Z,14.60
2019-05-10T19:00:17.574Z,14.70
2019-05-10T19:03:18.634Z,14.50
2019-05-10T19:06:19.850Z,14.30
2019-05-10T19:09:20.625Z,14.40
2019-05-10T19:12:23.033Z,14.40
2019-05-10T19:15:24.060Z,14.30
2019-05-10T19:18:25.505Z,14.20
2019-05-10T19:21:30.775Z,14.10
2019-05-10T19:24:17.021Z,14.00
2019-05-10T19:27:25.350Z,14.00
2019-05-10T19:30:34.765Z,13.90
2019-05-10T19:33:42.805Z,13.90
2019-05-10T19:36:50.825Z,13.80
2019-05-10T19:39:58.853Z,13.70
2019-05-10T19:43:06.901Z,13.70
2019-05-10T19:46:14.917Z,13.60
2019-05-10T19:49:22.961Z,13.60
2019-05-10T19:52:30.973Z,13.50
2019-05-10T19:55:39.005Z,13.40
2019-05-10T19:58:49.288Z,13.40
2019-05-10T20:01:56.757Z,13.30
2019-05-10T20:05:05.025Z,13.10
2019-05-10T20:08:13.061Z,13.10
2019-05-10T20:11:21.097Z,13.10
2019-05-10T20:14:09.890Z,13.00
2019-05-10T20:17:17.940Z,13.00
2019-05-10T20:20:26.009Z,12.90
2019-05-10T20:23:34.017Z,13.00
2019-05-10T20:26:42.045Z,12.90
2019-05-10T20:29:50.065Z,12.90
2019-05-10T20:32:58.073Z,12.90
2019-05-10T20:35:59.281Z,12.90
2019-05-10T20:39:01.007Z,12.90
2019-05-10T20:42:02.278Z,12.90
2019-05-10T20:45:08.433Z,12.90
2019-05-10T20:48:05.905Z,12.90
2019-05-10T20:51:06.666Z,13.00
2019-05-10T20:54:07.590Z,13.00
2019-05-10T20:57:08.485Z,13.00
2019-05-10T21:00:09.353Z,13.00
2019-05-10T21:03:10.093Z,13.00
2019-05-10T21:06:11.078Z,13.00
2019-05-10T21:09:11.820Z,13.00
2019-05-10T21:12:12.805Z,13.00
2019-05-10T21:15:13.497Z,13.00
2019-05-10T21:18:13.983Z,13.00
2019-05-10T21:21:14.722Z,13.00
2019-05-10T21:24:15.501Z,13.00
2019-05-10T21:27:05.849Z,13.10
2019-05-10T21:30:13.937Z,13.10
2019-05-10T21:33:21.981Z,13.10
2019-05-10T21:36:24.740Z,13.10
2019-05-10T21:39:25.565Z,13.10
2019-05-10T21:42:26.516Z,13.10
2019-05-10T21:45:27.274Z,13.00
2019-05-10T21:48:27.958Z,13.00
2019-05-10T21:51:28.783Z,13.00
2019-05-10T21:54:29.533Z,12.90
2019-05-10T21:57:30.489Z,12.90
2019-05-10T22:00:38.001Z,12.90
2019-05-10T22:03:39.080Z,12.80
2019-05-10T22:06:39.697Z,12.80
2019-05-10T22:09:40.685Z,12.70
2019-05-10T22:12:41.004Z,12.60
2019-05-10T22:15:41.614Z,12.60
2019-05-10T22:18:42.730Z,12.50
2019-05-10T22:21:43.257Z,12.40
2019-05-10T22:24:44.382Z,12.30
2019-05-10T22:27:44.822Z,12.20
2019-05-10T22:30:45.606Z,12.10
2019-05-10T22:33:46.331Z,12.10
2019-05-10T22:36:47.110Z,12.00
2019-05-10T22:39:47.609Z,12.10
2019-05-10T22:42:48.155Z,12.00
2019-05-10T22:45:48.786Z,11.90
2019-05-10T22:48:49.498Z,11.90
2019-05-10T22:51:50.244Z,11.90
2019-05-10T22:54:51.126Z,11.80
2019-05-10T22:57:39.914Z,11.80
2019-05-10T23:00:47.937Z,11.80
2019-05-10T23:03:55.977Z,11.70
2019-05-10T23:07:04.069Z,11.70
2019-05-10T23:10:12.173Z,11.60
2019-05-10T23:13:20.197Z,11.70
2019-05-10T23:16:28.217Z,11.60
2019-05-10T23:19:36.241Z,11.40
2019-05-10T23:22:44.265Z,11.50
2019-05-10T23:25:52.297Z,11.40
2019-05-10T23:29:00.345Z,11.40
2019-05-10T23:32:08.367Z,11.40
2019-05-10T23:35:08.718Z,11.40
2019-05-10T23:38:09.441Z,11.40
2019-05-10T23:41:10.202Z,11.40
2019-05-10T23:44:10.953Z,11.30
2019-05-10T23:47:11.741Z,11.40
2019-05-10T23:50:12.377Z,11.40
2019-05-10T23:53:01.165Z,11.20
2019-05-10T23:56:09.194Z,11.30
2019-05-10T23:59:17.213Z,11.20
